sensor_id;sensor_type;location;lat;lon;timestamp;P1;durP1;ratioP1;P2;durP2;ratioP2
6436;SDS011;3251;53.550;9.918;2023-10-09T11:00:53;31.13;;;17.80;;
6436;SDS011;3251;53.550;9.918;2023-10-09T11:03:22;8.47;;;7.30;;
6436;SDS011;3251;53.550;9.918;2023-10-09T11:06:01;6.07;;;4.60;;
6436;SDS011;3251;53.550;9.918;2023-10-09T11:08:43;5.60;;;4.90;;
6436;SDS011;3251;53.550;9.918;2023-10-09T11:11:34;4.73;;;2.70;;
6436;SDS011;3251;53.550;9.918;2023-10-09T11:14:12;2.87;;;2.67;;
6436;SDS011;3251;53.550;9.918;2023-10-09T11:16:49;4.00;;;3.00;;
6436;SDS011;3251;53.550;9.918;2023-10-09T11:19:21;4.30;;;3.03;;
6436;SDS011;3251;53.550;9.918;2023-10-09T11:21:57;2.70;;;2.60;;
6436;SDS011;3251;53.550;9.918;2023-10-09T11:24:43;2.37;;;2.27;;
6436;SDS011;3251;53.550;9.918;2023-10-09T11:27:12;6.90;;;1.90;;
6436;SDS011;3251;53.550;9.918;2023-10-09T11:29:47;2.73;;;2.57;;
6436;SDS011;3251;53.550;9.918;2023-10-09T11:32:18;2.97;;;2.80;;
6436;SDS011;3251;53.550;9.918;2023-10-09T11:34:48;4.03;;;3.50;;
6436;SDS011;3251;53.550;9.918;2023-10-09T11:37:18;3.43;;;2.43;;
6436;SDS011;3251;53.550;9.918;2023-10-09T11:39:53;2.77;;;2.57;;
6436;SDS011;3251;53.550;9.918;2023-10-09T11:42:21;3.40;;;3.17;;
6436;SDS011;3251;53.550;9.918;2023-10-09T11:45:06;4.07;;;3.50;;
6436;SDS011;3251;53.550;9.918;2023-10-09T11:47:46;3.70;;;3.47;;
6436;SDS011;3251;53.550;9.918;2023-10-09T11:53:16;4.13;;;2.47;;
6436;SDS011;3251;53.550;9.918;2023-10-09T11:55:58;3.27;;;3.07;;
6436;SDS011;3251;53.550;9.918;2023-10-09T11:58:24;3.13;;;2.73;;
6436;SDS011;3251;53.550;9.918;2023-10-09T12:00:51;2.90;;;2.70;;
6436;SDS011;3251;53.550;9.918;2023-10-09T12:03:22;3.00;;;2.80;;
6436;SDS011;3251;53.550;9.918;2023-10-09T12:05:54;3.80;;;3.40;;
6436;SDS011;3251;53.550;9.918;2023-10-09T12:08:22;6.13;;;5.20;;
6436;SDS011;3251;53.550;9.918;2023-10-09T12:10:51;4.17;;;3.97;;
6436;SDS011;3251;53.550;9.918;2023-10-09T12:13:20;6.80;;;4.13;;
6436;SDS011;3251;53.550;9.918;2023-10-09T12:15:47;12.40;;;7.33;;
6436;SDS011;3251;53.550;9.918;2023-10-09T12:18:14;10.07;;;5.63;;
6436;SDS011;3251;53.550;9.918;2023-10-09T12:20:43;7.60;;;5.50;;
6436;SDS011;3251;53.550;9.918;2023-10-09T12:23:18;3.83;;;3.57;;
6436;SDS011;3251;53.550;9.918;2023-10-09T12:25:45;4.63;;;4.13;;
6436;SDS011;3251;53.550;9.918;2023-10-09T12:28:11;8.50;;;7.07;;
6436;SDS011;3251;53.550;9.918;2023-10-09T12:30:38;18.53;;;12.13;;
6436;SDS011;3251;53.550;9.918;2023-10-09T12:33:05;6.67;;;6.03;;
6436;SDS011;3251;53.550;9.918;2023-10-09T12:35:39;5.83;;;5.33;;
6436;SDS011;3251;53.550;9.918;2023-10-09T12:38:06;11.67;;;8.37;;
6436;SDS011;3251;53.550;9.918;2023-10-09T12:40:37;12.17;;;8.43;;
6436;SDS011;3251;53.550;9.918;2023-10-09T12:43:06;11.67;;;7.60;;
6436;SDS011;3251;53.550;9.918;2023-10-09T12:45:40;6.87;;;6.20;;
6436;SDS011;3251;53.550;9.918;2023-10-09T12:48:06;13.00;;;7.00;;
6436;SDS011;3251;53.550;9.918;2023-10-09T12:50:36;7.30;;;6.07;;
6436;SDS011;3251;53.550;9.918;2023-10-09T12:53:09;9.27;;;6.50;;
6436;SDS011;3251;53.550;9.918;2023-10-09T12:55:39;7.33;;;5.97;;
6436;SDS011;3251;53.550;9.918;2023-10-09T12:58:10;11.10;;;8.40;;
6436;SDS011;3251;53.550;9.918;2023-10-09T13:00:41;7.17;;;6.40;;
6436;SDS011;3251;53.550;9.918;2023-10-09T13:03:14;7.60;;;5.93;;
6436;SDS011;3251;53.550;9.918;2023-10-09T13:05:48;10.60;;;6.47;;
6436;SDS011;3251;53.550;9.918;2023-10-09T13:08:19;10.90;;;7.83;;
6436;SDS011;3251;53.550;9.918;2023-10-09T13:10:51;8.10;;;7.30;;
6436;SDS011;3251;53.550;9.918;2023-10-09T13:13:29;11.47;;;6.23;;
6436;SDS011;3251;53.550;9.918;2023-10-09T13:16:05;8.70;;;6.63;;
6436;SDS011;3251;53.550;9.918;2023-10-09T13:18:32;6.83;;;5.30;;
6436;SDS011;3251;53.550;9.918;2023-10-09T13:20:58;9.93;;;6.47;;
6436;SDS011;3251;53.550;9.918;2023-10-09T13:23:29;5.53;;;5.13;;
6436;SDS011;3251;53.550;9.918;2023-10-09T13:26:04;6.10;;;5.27;;
6436;SDS011;3251;53.550;9.918;2023-10-09T13:28:42;6.00;;;5.40;;
6436;SDS011;3251;53.550;9.918;2023-10-09T13:31:10;7.50;;;5.70;;
6436;SDS011;3251;53.550;9.918;2023-10-09T13:33:42;9.17;;;7.37;;
6436;SDS011;3251;53.550;9.918;2023-10-09T13:36:09;6.37;;;5.70;;
6436;SDS011;3251;53.550;9.918;2023-10-09T13:38:44;5.60;;;5.20;;
6436;SDS011;3251;53.550;9.918;2023-10-09T13:41:11;9.17;;;6.97;;
6436;SDS011;3251;53.550;9.918;2023-10-09T13:43:41;9.50;;;8.50;;
6436;SDS011;3251;53.550;9.918;2023-10-09T13:46:10;12.67;;;8.80;;
6436;SDS011;3251;53.550;9.918;2023-10-09T13:48:42;12.60;;;9.47;;
6436;SDS011;3251;53.550;9.918;2023-10-09T13:51:12;15.87;;;11.10;;
6436;SDS011;3251;53.550;9.918;2023-10-09T13:53:44;15.83;;;10.87;;
6436;SDS011;3251;53.550;9.918;2023-10-09T13:56:14;23.70;;;11.80;;
6436;SDS011;3251;53.550;9.918;2023-10-09T13:58:47;11.93;;;8.80;;
6436;SDS011;3251;53.550;9.918;2023-10-09T14:01:14;15.10;;;10.70;;
6436;SDS011;3251;53.550;9.918;2023-10-09T14:03:56;8.70;;;7.50;;
6436;SDS011;3251;53.550;9.918;2023-10-09T14:06:23;9.50;;;8.50;;
6436;SDS011;3251;53.550;9.918;2023-10-09T14:09:02;10.90;;;6.97;;
6436;SDS011;3251;53.550;9.918;2023-10-09T14:11:33;9.10;;;8.27;;
6436;SDS011;3251;53.550;9.918;2023-10-09T14:14:09;11.90;;;7.60;;
6436;SDS011;3251;53.550;9.918;2023-10-09T14:16:37;11.93;;;9.50;;
6436;SDS011;3251;53.550;9.918;2023-10-09T14:19:08;13.37;;;8.80;;
6436;SDS011;3251;53.550;9.918;2023-10-09T14:21:38;7.97;;;7.27;;
6436;SDS011;3251;53.550;9.918;2023-10-09T14:24:08;11.40;;;6.30;;
6436;SDS011;3251;53.550;9.918;2023-10-09T14:26:41;11.30;;;8.13;;
6436;SDS011;3251;53.550;9.918;2023-10-09T14:29:10;24.73;;;16.60;;
6436;SDS011;3251;53.550;9.918;2023-10-09T14:31:45;11.50;;;9.57;;
6436;SDS011;3251;53.550;9.918;2023-10-09T14:34:25;21.93;;;12.10;;
6436;SDS011;3251;53.550;9.918;2023-10-09T14:36:57;18.10;;;12.77;;
6436;SDS011;3251;53.550;9.918;2023-10-09T14:39:26;23.23;;;11.90;;
6436;SDS011;3251;53.550;9.918;2023-10-09T14:41:52;12.87;;;9.77;;
6436;SDS011;3251;53.550;9.918;2023-10-09T14:44:23;11.83;;;10.63;;
6436;SDS011;3251;53.550;9.918;2023-10-09T14:46:49;15.20;;;10.37;;
6436;SDS011;3251;53.550;9.918;2023-10-09T14:49:16;17.37;;;9.63;;
6436;SDS011;3251;53.550;9.918;2023-10-09T14:51:46;17.67;;;8.77;;
6436;SDS011;3251;53.550;9.918;2023-10-09T14:54:13;15.27;;;9.50;;
6436;SDS011;3251;53.550;9.918;2023-10-09T14:56:43;13.40;;;9.30;;
6436;SDS011;3251;53.550;9.918;2023-10-09T14:59:11;8.80;;;7.90;;
6436;SDS011;3251;53.550;9.918;2023-10-09T15:01:37;16.20;;;8.43;;
6436;SDS011;3251;53.550;9.918;2023-10-09T15:04:03;11.03;;;8.27;;
6436;SDS011;3251;53.550;9.918;2023-10-09T15:06:30;11.40;;;8.80;;
6436;SDS011;3251;53.550;9.918;2023-10-09T15:08:56;14.33;;;8.73;;
6436;SDS011;3251;53.550;9.918;2023-10-09T15:11:24;9.70;;;8.33;;
6436;SDS011;3251;53.550;9.918;2023-10-09T15:13:51;11.47;;;7.53;;
6436;SDS011;3251;53.550;9.918;2023-10-09T15:16:18;9.43;;;8.20;;
6436;SDS011;3251;53.550;9.918;2023-10-09T15:18:47;16.33;;;8.90;;
6436;SDS011;3251;53.550;9.918;2023-10-09T15:21:18;9.00;;;8.10;;
6436;SDS011;3251;53.550;9.918;2023-10-09T15:23:48;12.93;;;8.50;;
6436;SDS011;3251;53.550;9.918;2023-10-09T15:26:16;9.40;;;8.50;;
6436;SDS011;3251;53.550;9.918;2023-10-09T15:28:42;10.97;;;8.73;;
6436;SDS011;3251;53.550;9.918;2023-10-09T15:31:08;9.37;;;8.47;;
6436;SDS011;3251;53.550;9.918;2023-10-09T15:33:41;15.70;;;9.40;;
6436;SDS011;3251;53.550;9.918;2023-10-09T15:36:15;9.60;;;8.20;;
6436;SDS011;3251;53.550;9.918;2023-10-09T15:38:48;15.50;;;9.47;;
6436;SDS011;3251;53.550;9.918;2023-10-09T15:41:15;10.47;;;7.27;;
6436;SDS011;3251;53.550;9.918;2023-10-09T15:43:41;16.17;;;6.93;;
6436;SDS011;3251;53.550;9.918;2023-10-09T15:46:12;7.77;;;5.10;;
6436;SDS011;3251;53.550;9.918;2023-10-09T15:48:42;18.73;;;13.67;;
6436;SDS011;3251;53.550;9.918;2023-10-09T15:51:14;23.50;;;11.13;;
6436;SDS011;3251;53.550;9.918;2023-10-09T15:53:41;5.73;;;5.07;;
6436;SDS011;3251;53.550;9.918;2023-10-09T15:56:07;13.37;;;8.40;;
6436;SDS011;3251;53.550;9.918;2023-10-09T15:58:33;16.87;;;6.30;;
6436;SDS011;3251;53.550;9.918;2023-10-09T16:01:00;4.70;;;4.30;;
6436;SDS011;3251;53.550;9.918;2023-10-09T16:03:26;23.00;;;9.63;;
6436;SDS011;3251;53.550;9.918;2023-10-09T16:05:52;11.83;;;7.60;;
6436;SDS011;3251;53.550;9.918;2023-10-09T16:08:18;18.33;;;7.57;;
6436;SDS011;3251;53.550;9.918;2023-10-09T16:10:47;18.00;;;12.40;;
6436;SDS011;3251;53.550;9.918;2023-10-09T16:13:14;20.60;;;11.47;;
6436;SDS011;3251;53.550;9.918;2023-10-09T16:15:41;15.30;;;8.30;;
6436;SDS011;3251;53.550;9.918;2023-10-09T16:18:08;12.70;;;7.40;;
6436;SDS011;3251;53.550;9.918;2023-10-09T16:20:35;11.73;;;5.80;;
6436;SDS011;3251;53.550;9.918;2023-10-09T16:23:02;10.93;;;5.17;;
6436;SDS011;3251;53.550;9.918;2023-10-09T16:25:30;31.97;;;19.37;;
6436;SDS011;3251;53.550;9.918;2023-10-09T16:27:58;11.60;;;7.57;;
6436;SDS011;3251;53.550;9.918;2023-10-09T16:30:28;14.10;;;8.23;;
6436;SDS011;3251;53.550;9.918;2023-10-09T16:32:54;37.50;;;24.13;;
6436;SDS011;3251;53.550;9.918;2023-10-09T16:35:21;37.50;;;22.33;;
6436;SDS011;3251;53.550;9.918;2023-10-09T16:37:50;73.60;;;37.90;;
6436;SDS011;3251;53.550;9.918;2023-10-09T16:40:18;19.93;;;10.90;;
6436;SDS011;3251;53.550;9.918;2023-10-09T16:42:45;25.07;;;16.70;;
6436;SDS011;3251;53.550;9.918;2023-10-09T16:45:14;24.67;;;15.43;;
6436;SDS011;3251;53.550;9.918;2023-10-09T16:47:46;21.90;;;13.97;;
6436;SDS011;3251;53.550;9.918;2023-10-09T16:50:13;7.33;;;4.27;;
6436;SDS011;3251;53.550;9.918;2023-10-09T16:52:41;21.60;;;10.30;;
6436;SDS011;3251;53.550;9.918;2023-10-09T16:55:08;13.27;;;9.30;;
6436;SDS011;3251;53.550;9.918;2023-10-09T16:57:35;9.03;;;6.13;;
6436;SDS011;3251;53.550;9.918;2023-10-09T17:00:05;65.27;;;36.33;;
6436;SDS011;3251;53.550;9.918;2023-10-09T17:02:37;48.17;;;27.87;;
6436;SDS011;3251;53.550;9.918;2023-10-09T17:05:05;76.80;;;42.23;;
6436;SDS011;3251;53.550;9.918;2023-10-09T17:07:34;49.07;;;26.63;;
6436;SDS011;3251;53.550;9.918;2023-10-09T17:10:01;29.87;;;15.80;;
6436;SDS011;3251;53.550;9.918;2023-10-09T17:12:34;32.93;;;17.87;;
6436;SDS011;3251;53.550;9.918;2023-10-09T17:15:01;19.63;;;14.00;;
6436;SDS011;3251;53.550;9.918;2023-10-09T17:17:27;24.47;;;15.70;;
6436;SDS011;3251;53.550;9.918;2023-10-09T17:19:56;26.30;;;17.67;;
6436;SDS011;3251;53.550;9.918;2023-10-09T17:22:23;31.60;;;16.90;;
6436;SDS011;3251;53.550;9.918;2023-10-09T17:24:49;53.40;;;28.27;;
6436;SDS011;3251;53.550;9.918;2023-10-09T17:27:15;10.40;;;7.43;;
6436;SDS011;3251;53.550;9.918;2023-10-09T17:29:44;23.33;;;13.10;;
6436;SDS011;3251;53.550;9.918;2023-10-09T17:32:11;33.00;;;12.63;;
6436;SDS011;3251;53.550;9.918;2023-10-09T17:34:37;8.57;;;5.53;;
6436;SDS011;3251;53.550;9.918;2023-10-09T17:37:04;16.53;;;7.47;;
6436;SDS011;3251;53.550;9.918;2023-10-09T17:39:31;15.67;;;7.47;;
6436;SDS011;3251;53.550;9.918;2023-10-09T17:41:58;5.60;;;4.00;;
6436;SDS011;3251;53.550;9.918;2023-10-09T17:44:24;6.13;;;4.73;;
6436;SDS011;3251;53.550;9.918;2023-10-09T17:46:52;8.17;;;4.77;;
6436;SDS011;3251;53.550;9.918;2023-10-09T17:49:18;5.87;;;1.67;;
6436;SDS011;3251;53.550;9.918;2023-10-09T17:51:47;15.10;;;2.87;;
6436;SDS011;3251;53.550;9.918;2023-10-09T17:54:13;7.67;;;3.30;;
6436;SDS011;3251;53.550;9.918;2023-10-09T17:56:40;3.57;;;1.60;;
6436;SDS011;3251;53.550;9.918;2023-10-09T17:59:06;5.70;;;1.60;;
6436;SDS011;3251;53.550;9.918;2023-10-09T18:01:37;5.73;;;3.27;;
6436;SDS011;3251;53.550;9.918;2023-10-09T18:04:04;7.13;;;3.20;;
6436;SDS011;3251;53.550;9.918;2023-10-09T18:06:30;12.13;;;3.03;;
6436;SDS011;3251;53.550;9.918;2023-10-09T18:09:00;5.37;;;2.73;;
6436;SDS011;3251;53.550;9.918;2023-10-09T18:11:40;4.60;;;3.90;;
6436;SDS011;3251;53.550;9.918;2023-10-09T18:14:07;6.90;;;2.77;;
6436;SDS011;3251;53.550;9.918;2023-10-09T18:16:33;12.90;;;2.97;;
6436;SDS011;3251;53.550;9.918;2023-10-09T18:18:59;4.17;;;2.40;;
6436;SDS011;3251;53.550;9.918;2023-10-09T18:21:29;4.83;;;2.60;;
6436;SDS011;3251;53.550;9.918;2023-10-09T18:23:55;3.30;;;3.00;;
6436;SDS011;3251;53.550;9.918;2023-10-09T18:26:23;3.53;;;3.20;;
6436;SDS011;3251;53.550;9.918;2023-10-09T18:28:52;53.27;;;15.20;;
6436;SDS011;3251;53.550;9.918;2023-10-09T18:31:18;32.43;;;11.30;;
6436;SDS011;3251;53.550;9.918;2023-10-09T18:33:46;39.37;;;10.77;;
6436;SDS011;3251;53.550;9.918;2023-10-09T18:36:12;28.93;;;7.20;;
6436;SDS011;3251;53.550;9.918;2023-10-09T18:38:38;21.20;;;7.40;;
6436;SDS011;3251;53.550;9.918;2023-10-09T18:41:07;15.97;;;4.57;;
6436;SDS011;3251;53.550;9.918;2023-10-09T18:43:35;15.07;;;4.67;;
6436;SDS011;3251;53.550;9.918;2023-10-09T18:46:05;8.67;;;3.90;;
6436;SDS011;3251;53.550;9.918;2023-10-09T18:48:34;18.60;;;5.53;;
6436;SDS011;3251;53.550;9.918;2023-10-09T18:51:00;6.77;;;2.97;;
6436;SDS011;3251;53.550;9.918;2023-10-09T18:53:26;5.00;;;2.23;;
6436;SDS011;3251;53.550;9.918;2023-10-09T18:55:57;2.23;;;1.57;;
6436;SDS011;3251;53.550;9.918;2023-10-09T18:58:28;1.77;;;1.13;;
6436;SDS011;3251;53.550;9.918;2023-10-09T19:00:54;4.57;;;1.50;;
6436;SDS011;3251;53.550;9.918;2023-10-09T19:03:31;5.90;;;2.43;;
6436;SDS011;3251;53.550;9.918;2023-10-09T19:05:58;6.40;;;2.63;;
6436;SDS011;3251;53.550;9.918;2023-10-09T19:08:24;6.93;;;1.77;;
6436;SDS011;3251;53.550;9.918;2023-10-09T19:10:58;5.93;;;3.30;;
6436;SDS011;3251;53.550;9.918;2023-10-09T19:13:24;3.43;;;3.13;;
6436;SDS011;3251;53.550;9.918;2023-10-09T19:15:51;3.87;;;3.27;;
6436;SDS011;3251;53.550;9.918;2023-10-09T19:18:17;12.20;;;3.80;;
6436;SDS011;3251;53.550;9.918;2023-10-09T19:20:44;5.90;;;4.13;;
6436;SDS011;3251;53.550;9.918;2023-10-09T19:23:12;5.53;;;4.60;;
6436;SDS011;3251;53.550;9.918;2023-10-09T19:25:41;6.47;;;4.53;;
6436;SDS011;3251;53.550;9.918;2023-10-09T19:28:08;13.90;;;6.40;;
6436;SDS011;3251;53.550;9.918;2023-10-09T19:30:34;8.13;;;4.70;;
6436;SDS011;3251;53.550;9.918;2023-10-09T19:33:00;12.73;;;6.73;;
6436;SDS011;3251;53.550;9.918;2023-10-09T19:35:30;31.70;;;16.53;;
6436;SDS011;3251;53.550;9.918;2023-10-09T19:37:58;24.10;;;12.80;;
6436;SDS011;3251;53.550;9.918;2023-10-09T19:40:25;12.30;;;9.70;;
6436;SDS011;3251;53.550;9.918;2023-10-09T19:42:51;15.20;;;7.10;;
6436;SDS011;3251;53.550;9.918;2023-10-09T19:45:18;8.83;;;6.33;;
6436;SDS011;3251;53.550;9.918;2023-10-09T19:47:49;11.83;;;8.60;;
6436;SDS011;3251;53.550;9.918;2023-10-09T19:50:16;9.23;;;5.90;;
6436;SDS011;3251;53.550;9.918;2023-10-09T19:52:45;6.37;;;5.80;;
6436;SDS011;3251;53.550;9.918;2023-10-09T19:55:13;7.83;;;4.43;;
6436;SDS011;3251;53.550;9.918;2023-10-09T19:57:39;8.90;;;4.50;;
6436;SDS011;3251;53.550;9.918;2023-10-09T20:00:08;11.60;;;5.13;;
6436;SDS011;3251;53.550;9.918;2023-10-09T20:02:35;11.00;;;4.60;;
6436;SDS011;3251;53.550;9.918;2023-10-09T20:05:01;8.30;;;5.30;;
6436;SDS011;3251;53.550;9.918;2023-10-09T20:07:28;12.10;;;4.67;;
6436;SDS011;3251;53.550;9.918;2023-10-09T20:09:54;5.57;;;3.60;;
6436;SDS011;3251;53.550;9.918;2023-10-09T20:12:23;9.70;;;4.10;;
6436;SDS011;3251;53.550;9.918;2023-10-09T20:14:54;7.03;;;3.53;;
6436;SDS011;3251;53.550;9.918;2023-10-09T20:17:21;6.60;;;4.00;;
6436;SDS011;3251;53.550;9.918;2023-10-09T20:19:47;7.93;;;4.20;;
6436;SDS011;3251;53.550;9.918;2023-10-09T20:22:17;4.23;;;3.73;;
6436;SDS011;3251;53.550;9.918;2023-10-09T20:24:43;3.70;;;3.50;;
6436;SDS011;3251;53.550;9.918;2023-10-09T20:27:09;4.97;;;3.73;;
6436;SDS011;3251;53.550;9.918;2023-10-09T20:29:37;3.53;;;3.33;;
6436;SDS011;3251;53.550;9.918;2023-10-09T20:32:04;7.47;;;3.40;;
6436;SDS011;3251;53.550;9.918;2023-10-09T20:34:31;6.27;;;3.57;;
6436;SDS011;3251;53.550;9.918;2023-10-09T20:36:57;7.10;;;2.93;;
6436;SDS011;3251;53.550;9.918;2023-10-09T20:39:28;11.80;;;4.77;;
6436;SDS011;3251;53.550;9.918;2023-10-09T20:41:55;28.17;;;15.93;;
6436;SDS011;3251;53.550;9.918;2023-10-09T20:44:21;27.77;;;17.63;;
6436;SDS011;3251;53.550;9.918;2023-10-09T22:19:13;11.83;;;5.23;;
6436;SDS011;3251;53.550;9.918;2023-10-09T22:21:39;7.43;;;5.10;;
6436;SDS011;3251;53.550;9.918;2023-10-09T22:24:06;6.80;;;4.60;;
6436;SDS011;3251;53.550;9.918;2023-10-09T22:26:36;4.00;;;3.70;;
6436;SDS011;3251;53.550;9.918;2023-10-09T22:29:05;14.43;;;6.03;;
6436;SDS011;3251;53.550;9.918;2023-10-09T22:31:38;5.90;;;4.50;;
6436;SDS011;3251;53.550;9.918;2023-10-09T22:34:04;15.63;;;4.97;;
6436;SDS011;3251;53.550;9.918;2023-10-09T22:36:36;16.57;;;5.07;;
6436;SDS011;3251;53.550;9.918;2023-10-09T22:39:12;9.50;;;5.57;;
6436;SDS011;3251;53.550;9.918;2023-10-09T22:41:46;4.83;;;4.53;;
6436;SDS011;3251;53.550;9.918;2023-10-09T22:44:15;28.07;;;5.90;;
6436;SDS011;3251;53.550;9.918;2023-10-09T22:46:46;5.37;;;5.00;;
6436;SDS011;3251;53.550;9.918;2023-10-09T22:49:13;17.23;;;5.57;;
6436;SDS011;3251;53.550;9.918;2023-10-09T22:51:43;7.63;;;5.37;;
6436;SDS011;3251;53.550;9.918;2023-10-09T22:54:16;17.50;;;4.50;;
6436;SDS011;3251;53.550;9.918;2023-10-09T22:56:49;16.13;;;4.73;;
6436;SDS011;3251;53.550;9.918;2023-10-09T22:59:16;7.53;;;3.93;;
6436;SDS011;3251;53.550;9.918;2023-10-09T23:01:46;12.57;;;5.47;;
6436;SDS011;3251;53.550;9.918;2023-10-09T23:04:19;6.80;;;4.80;;
6436;SDS011;3251;53.550;9.918;2023-10-09T23:06:54;6.03;;;5.53;;
6436;SDS011;3251;53.550;9.918;2023-10-09T23:09:28;17.40;;;3.67;;
6436;SDS011;3251;53.550;9.918;2023-10-09T23:11:58;5.90;;;3.80;;
6436;SDS011;3251;53.550;9.918;2023-10-09T23:14:32;6.40;;;4.07;;
6436;SDS011;3251;53.550;9.918;2023-10-09T23:17:00;11.83;;;4.40;;
